createdAt,value
2023-01-02T00:00:40.394Z,17.85
2023-01-02T00:03:26.315Z,19.05
2023-01-02T00:05:56.160Z,17.75
2023-01-02T00:08:25.732Z,19.63
2023-01-02T00:10:53.299Z,21.30
2023-01-02T00:13:22.979Z,20.63
2023-01-02T00:15:50.413Z,18.67
2023-01-02T00:18:17.624Z,18.92
2023-01-02T00:20:47.353Z,17.42
2023-01-02T00:23:14.420Z,16.20
2023-01-02T00:25:41.991Z,17.90
2023-01-02T00:28:09.292Z,19.75
2023-01-02T00:30:39.715Z,16.92
2023-01-02T00:33:09.855Z,18.05
2023-01-02T00:35:37.813Z,16.15
2023-01-02T00:38:05.491Z,18.00
2023-01-02T00:40:35.476Z,15.38
2023-01-02T00:43:02.679Z,16.08
2023-01-02T00:45:30.404Z,15.27
2023-01-02T00:47:59.727Z,15.00
2023-01-02T00:50:27.257Z,14.63
2023-01-02T00:52:54.473Z,12.30
2023-01-02T00:55:21.929Z,16.48
2023-01-02T00:57:53.827Z,15.30
2023-01-02T01:00:24.223Z,14.27
2023-01-02T01:02:56.038Z,14.85
2023-01-02T01:05:27.722Z,13.13
2023-01-02T01:07:58.216Z,15.57
2023-01-02T01:10:26.504Z,16.73
2023-01-02T01:12:53.626Z,13.32
2023-01-02T01:15:23.489Z,15.02
2023-01-02T01:17:50.546Z,13.77
2023-01-02T01:20:18.024Z,12.45
2023-01-02T01:22:45.323Z,14.75
2023-01-02T01:25:15.279Z,13.55
2023-01-02T01:27:42.323Z,13.48
2023-01-02T01:30:10.511Z,13.15
2023-01-02T01:32:37.531Z,14.18
2023-01-02T01:35:07.606Z,14.45
2023-01-02T01:37:34.929Z,13.30
2023-01-02T01:40:02.259Z,14.15
2023-01-02T01:42:35.646Z,12.95
2023-01-02T01:45:16.228Z,11.85
2023-01-02T01:47:56.631Z,13.02
2023-01-02T01:50:36.266Z,14.30
2023-01-02T01:53:13.826Z,13.45
2023-01-02T01:55:46.934Z,12.48
2023-01-02T01:58:22.808Z,16.33
2023-01-02T02:00:51.070Z,17.30
2023-01-02T02:03:27.144Z,14.35
2023-01-02T02:05:59.727Z,14.80
2023-01-02T02:08:36.514Z,12.45
2023-01-02T02:11:04.358Z,14.10
2023-01-02T02:13:33.776Z,13.30
2023-01-02T02:16:07.172Z,12.70
2023-01-02T02:19:01.245Z,12.70
2023-01-02T02:24:28.742Z,13.00
2023-01-02T02:27:27.080Z,12.60
2023-01-02T02:30:11.547Z,12.70
2023-01-02T02:33:15.714Z,11.07
2023-01-02T02:36:05.812Z,13.48
2023-01-02T02:38:44.955Z,12.88
2023-01-02T02:41:34.871Z,12.35
2023-01-02T02:44:08.651Z,12.02
2023-01-02T02:49:05.958Z,11.25
2023-01-02T02:51:33.029Z,13.35
2023-01-02T02:54:09.125Z,11.20
2023-01-02T02:56:36.807Z,12.00
2023-01-02T02:59:04.670Z,9.10
2023-01-02T03:01:32.327Z,12.02
2023-01-02T03:03:59.936Z,9.50
2023-01-02T03:06:51.353Z,10.57
2023-01-02T03:09:23.058Z,11.40
2023-01-02T03:12:30.740Z,10.20
2023-01-02T03:15:30.487Z,11.98
2023-01-02T03:18:35.748Z,11.35
2023-01-02T03:21:17.150Z,9.55
2023-01-02T03:23:46.934Z,10.32
2023-01-02T03:26:20.567Z,9.82
2023-01-02T03:28:53.240Z,9.70
2023-01-02T03:31:24.082Z,9.82
2023-01-02T03:33:55.937Z,9.95
2023-01-02T03:36:30.441Z,12.88
2023-01-02T03:39:12.517Z,10.82
2023-01-02T03:42:08.747Z,9.82
2023-01-02T03:44:51.057Z,10.60
2023-01-02T03:47:32.851Z,10.70
2023-01-02T03:50:04.947Z,9.30
2023-01-02T03:52:32.555Z,11.68
2023-01-02T03:55:01.282Z,9.57
2023-01-02T03:57:40.643Z,7.72
2023-01-02T04:00:12.192Z,10.13
2023-01-02T04:02:40.818Z,10.02
2023-01-02T04:05:26.447Z,9.43
2023-01-02T04:08:01.703Z,9.38
2023-01-02T04:10:34.061Z,9.15
2023-01-02T04:13:11.700Z,8.05
2023-01-02T04:15:44.298Z,9.15
2023-01-02T04:18:18.586Z,9.57
2023-01-02T04:20:50.517Z,9.60
2023-01-02T04:23:41.993Z,8.95
2023-01-02T04:26:32.462Z,9.02
2023-01-02T04:29:00.110Z,9.70
2023-01-02T04:31:56.221Z,7.07
2023-01-02T04:34:25.665Z,6.50
2023-01-02T04:36:55.154Z,7.78
2023-01-02T04:39:27.013Z,8.68
2023-01-02T04:41:54.385Z,7.55
2023-01-02T04:44:23.984Z,10.20
2023-01-02T04:46:51.245Z,6.15
2023-01-02T04:49:18.815Z,6.97
2023-01-02T04:51:45.888Z,7.28
2023-01-02T04:54:13.504Z,6.32
2023-01-02T04:56:40.769Z,9.75
2023-01-02T04:59:10.321Z,8.40
2023-01-02T05:01:39.834Z,7.78
2023-01-02T05:04:07.433Z,9.77
2023-01-02T05:06:34.651Z,8.90
2023-01-02T05:09:04.587Z,7.25
2023-01-02T05:11:31.771Z,8.13
2023-01-02T05:14:03.850Z,7.35
2023-01-02T05:16:36.466Z,7.07
2023-01-02T05:19:03.919Z,8.10
2023-01-02T05:21:31.015Z,8.00
2023-01-02T05:24:03.026Z,8.82
2023-01-02T05:26:30.514Z,8.95
2023-01-02T05:28:57.903Z,8.55
2023-01-02T05:31:27.813Z,7.13
2023-01-02T05:33:57.117Z,8.63
2023-01-02T05:36:25.538Z,8.93
2023-01-02T05:38:53.540Z,7.80
2023-01-02T05:41:22.332Z,9.02
2023-01-02T05:43:51.969Z,7.47
2023-01-02T05:46:21.079Z,10.10
2023-01-02T05:48:48.974Z,8.55
2023-01-02T05:51:18.530Z,10.95
2023-01-02T05:53:46.471Z,7.93
2023-01-02T05:56:16.541Z,7.90
2023-01-02T05:58:46.083Z,7.38
2023-01-02T06:01:16.235Z,8.32
2023-01-02T06:03:51.643Z,8.52
2023-01-02T06:06:22.228Z,7.30
2023-01-02T06:08:49.698Z,6.78
2023-01-02T06:11:19.177Z,8.60
2023-01-02T06:13:49.373Z,6.30
2023-01-02T06:16:18.656Z,6.80
2023-01-02T06:18:46.456Z,6.63
2023-01-02T06:21:15.759Z,8.32
2023-01-02T06:23:46.857Z,7.25
2023-01-02T06:26:19.173Z,5.72
2023-01-02T06:28:51.120Z,7.75
2023-01-02T06:31:19.928Z,10.10
2023-01-02T06:33:47.983Z,8.65
2023-01-02T06:36:19.077Z,9.77
2023-01-02T06:38:46.804Z,8.20
2023-01-02T06:41:14.955Z,9.00
2023-01-02T06:43:47.835Z,7.95
2023-01-02T06:46:19.724Z,7.18
2023-01-02T06:48:47.768Z,5.60
2023-01-02T06:51:19.573Z,8.95
2023-01-02T06:53:49.372Z,8.98
2023-01-02T06:56:18.592Z,7.65
2023-01-02T06:58:46.470Z,8.70
2023-01-02T07:01:16.462Z,9.45
2023-01-02T07:03:44.393Z,6.65
2023-01-02T07:06:16.557Z,7.68
2023-01-02T07:08:44.228Z,7.70
2023-01-02T07:11:23.848Z,7.18
2023-01-02T07:13:53.405Z,7.00
2023-01-02T07:16:21.937Z,7.05
2023-01-02T07:18:49.740Z,8.18
2023-01-02T07:21:17.445Z,9.50
2023-01-02T07:23:45.039Z,7.32
2023-01-02T07:26:12.700Z,8.82
2023-01-02T07:28:42.684Z,6.40
2023-01-02T07:31:15.464Z,7.45
2023-01-02T07:33:43.360Z,7.80
2023-01-02T07:36:13.599Z,7.72
2023-01-02T07:38:43.632Z,6.78
2023-01-02T07:41:15.741Z,7.32
2023-01-02T07:43:46.577Z,8.38
2023-01-02T07:46:19.079Z,7.80
2023-01-02T07:48:47.256Z,6.82
2023-01-02T07:51:14.579Z,9.55
2023-01-02T07:53:44.503Z,7.60
2023-01-02T07:56:13.772Z,8.70
2023-01-02T07:58:41.383Z,6.95
2023-01-02T08:01:11.148Z,8.35
2023-01-02T08:03:39.143Z,7.18
2023-01-02T08:06:13.312Z,9.13
2023-01-02T08:08:42.798Z,7.20
2023-01-02T08:11:12.515Z,9.82
2023-01-02T08:13:40.524Z,8.38
2023-01-02T08:16:12.994Z,8.90
2023-01-02T08:18:40.662Z,9.02
2023-01-02T08:21:09.679Z,14.93
2023-01-02T08:23:37.359Z,10.00
2023-01-02T08:26:07.115Z,12.43
2023-01-02T08:28:35.561Z,11.35
2023-01-02T08:31:07.320Z,9.85
2023-01-02T08:33:35.017Z,8.57
2023-01-02T08:36:02.077Z,8.48
2023-01-02T08:38:29.567Z,10.63
2023-01-02T08:41:00.052Z,9.30
2023-01-02T08:43:28.153Z,9.68
2023-01-02T08:45:55.891Z,9.13
2023-01-02T08:48:23.653Z,9.13
2023-01-02T08:50:50.771Z,8.98
2023-01-02T08:53:18.419Z,9.05
2023-01-02T08:55:45.880Z,10.35
2023-01-02T08:58:15.598Z,9.55
2023-01-02T09:00:42.688Z,9.85
2023-01-02T09:03:10.396Z,10.13
2023-01-02T09:05:41.974Z,15.27
2023-01-02T09:08:09.290Z,9.05
2023-01-02T09:10:39.096Z,11.55
2023-01-02T09:13:06.840Z,12.25
2023-01-02T09:15:36.151Z,9.40
2023-01-02T09:18:03.796Z,9.65
2023-01-02T09:20:33.148Z,9.90
2023-01-02T09:23:00.502Z,15.25
2023-01-02T09:25:27.760Z,11.02
2023-01-02T09:27:55.108Z,11.18
2023-01-02T09:30:22.202Z,11.73
2023-01-02T09:32:49.838Z,12.27
2023-01-02T09:35:17.174Z,12.43
2023-01-02T09:37:44.619Z,12.43
2023-01-02T09:40:13.318Z,13.85
2023-01-02T09:42:41.315Z,10.38
2023-01-02T09:45:10.820Z,10.68
2023-01-02T09:47:40.334Z,13.50
2023-01-02T09:50:16.076Z,10.77
2023-01-02T09:52:52.585Z,12.07
2023-01-02T09:55:35.258Z,12.38
2023-01-02T09:58:24.632Z,11.88
2023-01-02T10:00:54.719Z,14.00
2023-01-02T10:03:57.594Z,12.07
2023-01-02T10:06:30.701Z,11.32
2023-01-02T10:09:23.289Z,10.38
2023-01-02T10:11:56.068Z,12.20
2023-01-02T10:14:53.027Z,10.23
2023-01-02T10:17:20.876Z,11.70
2023-01-02T10:19:58.686Z,12.93
2023-01-02T10:22:41.783Z,11.68
2023-01-02T10:25:21.622Z,12.50
2023-01-02T10:28:18.220Z,11.32
2023-01-02T10:31:09.305Z,11.02
2023-01-02T10:33:45.693Z,11.45
2023-01-02T10:36:31.240Z,11.88
2023-01-02T10:39:07.000Z,14.32
2023-01-02T10:41:38.062Z,10.80
2023-01-02T10:44:17.003Z,11.00
2023-01-02T10:46:44.704Z,12.63
2023-01-02T10:49:12.546Z,10.63
2023-01-02T10:51:48.237Z,10.95
2023-01-02T10:54:18.555Z,12.40
2023-01-02T10:56:50.018Z,10.32
2023-01-02T10:59:24.800Z,10.13
2023-01-02T11:01:57.758Z,9.38
2023-01-02T11:07:03.799Z,10.25
2023-01-02T11:09:34.848Z,10.68
2023-01-02T11:12:13.547Z,9.70
2023-01-02T11:14:43.316Z,10.60
2023-01-02T11:17:15.462Z,9.43
2023-01-02T11:19:48.886Z,9.15
2023-01-02T11:22:21.190Z,11.60
2023-01-02T11:25:00.619Z,9.57
2023-01-02T11:27:34.313Z,10.70
2023-01-02T11:32:40.477Z,11.82
2023-01-02T11:35:32.014Z,12.35
2023-01-02T11:38:01.593Z,14.13
2023-01-02T11:40:31.043Z,10.70
2023-01-02T11:43:05.263Z,10.65
2023-01-02T11:45:34.003Z,15.43
2023-01-02T11:48:06.624Z,10.90
2023-01-02T11:50:42.431Z,9.40
2023-01-02T11:53:12.642Z,11.98
2023-01-02T11:55:55.255Z,11.65
2023-01-02T11:58:55.267Z,11.88
2023-01-02T12:01:39.552Z,11.27
2023-01-02T12:04:07.164Z,12.15
2023-01-02T12:07:05.878Z,11.68
2023-01-02T12:10:02.518Z,14.25
2023-01-02T12:12:42.966Z,11.93
2023-01-02T12:15:43.686Z,12.82
2023-01-02T12:18:32.650Z,13.75
2023-01-02T12:21:10.373Z,13.75
2023-01-02T12:23:56.237Z,14.18
2023-01-02T12:27:02.145Z,13.68
2023-01-02T12:29:47.094Z,14.25
2023-01-02T12:32:43.891Z,12.45
2023-01-02T12:35:35.941Z,12.30
2023-01-02T12:38:22.338Z,13.30
2023-01-02T12:40:57.714Z,14.38
2023-01-02T12:43:59.597Z,13.75
2023-01-02T12:46:51.085Z,13.93
2023-01-02T12:49:36.275Z,15.30
2023-01-02T12:52:28.397Z,13.02
2023-01-02T12:55:20.610Z,14.30
2023-01-02T12:58:41.837Z,14.15
2023-01-02T13:01:28.030Z,15.55
2023-01-02T13:04:19.386Z,11.15
2023-01-02T13:06:52.859Z,12.40
2023-01-02T13:09:25.790Z,12.93
2023-01-02T13:12:12.452Z,14.30
2023-01-02T13:14:41.995Z,13.85
2023-01-02T13:17:12.189Z,12.57
2023-01-02T13:20:06.021Z,10.90
2023-01-02T13:25:33.619Z,14.50
2023-01-02T13:28:08.536Z,13.40
2023-01-02T13:30:35.771Z,12.70
2023-01-02T13:33:20.987Z,12.95
2023-01-02T13:35:48.265Z,13.20
2023-01-02T13:38:19.059Z,14.15
2023-01-02T13:40:52.915Z,14.55
2023-01-02T13:43:27.269Z,13.25
2023-01-02T13:45:55.493Z,16.13
2023-01-02T13:48:26.147Z,17.38
2023-01-02T13:51:13.478Z,17.95
2023-01-02T13:53:47.910Z,17.13
2023-01-02T13:56:16.968Z,15.95
2023-01-02T13:59:01.278Z,16.40
2023-01-02T14:01:37.450Z,16.60
2023-01-02T14:04:07.853Z,15.65
2023-01-02T14:06:37.515Z,16.17
2023-01-02T14:09:05.090Z,16.73
2023-01-02T14:11:55.792Z,18.92
2023-01-02T14:14:44.820Z,17.02
2023-01-02T14:17:49.509Z,17.50
2023-01-02T14:20:31.748Z,18.65
2023-01-02T14:23:08.774Z,20.05
2023-01-02T14:25:48.935Z,18.92
2023-01-02T14:28:37.219Z,20.80
2023-01-02T14:31:18.003Z,19.20
2023-01-02T14:33:54.228Z,20.13
2023-01-02T14:36:33.903Z,19.08
2023-01-02T14:39:00.992Z,18.33
2023-01-02T14:41:50.368Z,19.58
2023-01-02T14:44:17.576Z,19.98
2023-01-02T14:46:45.240Z,21.63
2023-01-02T14:49:25.666Z,21.55
2023-01-02T14:52:02.331Z,20.75
2023-01-02T14:54:46.943Z,19.67
2023-01-02T14:57:24.574Z,21.05
2023-01-02T14:59:56.276Z,19.50
2023-01-02T15:02:37.836Z,18.63
2023-01-02T15:05:12.303Z,18.77
2023-01-02T15:07:52.831Z,22.27
2023-01-02T15:10:22.674Z,19.63
2023-01-02T15:12:52.829Z,21.08
2023-01-02T15:15:25.540Z,22.20
2023-01-02T15:17:57.371Z,25.85
2023-01-02T15:20:28.722Z,19.73
2023-01-02T15:22:56.758Z,24.58
2023-01-02T15:25:40.957Z,21.67
2023-01-02T15:28:25.960Z,24.75
2023-01-02T15:31:02.551Z,22.65
2023-01-02T15:33:35.379Z,24.58
2023-01-02T15:36:08.146Z,25.90
2023-01-02T15:38:35.636Z,23.40
2023-01-02T15:41:03.031Z,23.35
2023-01-02T15:43:33.873Z,24.10
2023-01-02T15:46:03.631Z,25.13
2023-01-02T15:48:31.572Z,27.60
2023-01-02T15:51:01.641Z,24.00
2023-01-02T15:53:33.223Z,26.42
2023-01-02T15:56:00.377Z,28.15
2023-01-02T15:58:32.037Z,27.77
2023-01-02T16:01:12.691Z,27.05
2023-01-02T16:04:01.863Z,23.38
2023-01-02T16:06:44.766Z,24.33
2023-01-02T16:09:25.100Z,23.60
2023-01-02T16:12:03.326Z,24.90
2023-01-02T16:14:37.000Z,24.42
2023-01-02T16:17:11.701Z,30.88
2023-01-02T16:19:56.241Z,29.75
2023-01-02T16:22:30.142Z,29.55
2023-01-02T16:24:59.444Z,30.85
2023-01-02T16:27:32.206Z,26.25
2023-01-02T16:29:59.965Z,18.17
2023-01-02T16:32:27.093Z,24.42
2023-01-02T16:35:19.077Z,21.63
2023-01-02T16:37:53.632Z,21.52
2023-01-02T16:41:01.025Z,22.13
2023-01-02T16:43:11.970Z,22.42
2023-01-02T16:45:39.618Z,38.25
2023-01-02T16:48:08.159Z,53.92
2023-01-02T16:50:41.740Z,27.80
2023-01-02T16:53:10.130Z,25.02
2023-01-02T16:55:39.922Z,25.13
2023-01-02T16:58:09.669Z,21.75
2023-01-02T17:00:43.386Z,27.88
2023-01-02T17:03:27.595Z,29.35
2023-01-02T17:06:06.361Z,29.77
2023-01-02T17:08:34.038Z,23.77
2023-01-02T17:11:03.862Z,18.88
2023-01-02T17:13:33.633Z,17.75
2023-01-02T17:16:03.665Z,18.08
2023-01-02T17:18:33.224Z,18.90
2023-01-02T17:21:00.680Z,17.73
2023-01-02T17:23:27.736Z,20.30
2023-01-02T17:25:55.133Z,16.88
2023-01-02T17:28:24.640Z,17.92
2023-01-02T17:30:54.563Z,18.83
2023-01-02T17:33:22.089Z,20.20
2023-01-02T17:35:50.126Z,20.30
2023-01-02T17:38:17.861Z,20.00
2023-01-02T17:40:47.578Z,21.90
2023-01-02T17:43:14.679Z,20.77
2023-01-02T17:45:42.625Z,25.15
2023-01-02T17:48:16.163Z,21.65
2023-01-02T17:50:45.933Z,25.17
2023-01-02T17:53:13.314Z,18.23
2023-01-02T17:55:40.719Z,19.33
2023-01-02T17:58:07.829Z,18.65
2023-01-02T18:00:37.706Z,22.80
2023-01-02T18:03:04.809Z,18.00
2023-01-02T18:05:35.784Z,18.75
2023-01-02T18:08:05.311Z,18.73
2023-01-02T18:10:36.665Z,18.15
2023-01-02T18:13:07.807Z,17.92
2023-01-02T18:15:35.260Z,19.13
2023-01-02T18:18:09.460Z,18.40
2023-01-02T18:20:40.486Z,22.33
2023-01-02T18:23:15.705Z,20.63
2023-01-02T18:25:43.182Z,17.85
2023-01-02T18:28:26.385Z,20.00
2023-01-02T18:30:57.435Z,19.42
2023-01-02T18:33:24.747Z,19.95
2023-01-02T18:35:58.716Z,21.75
2023-01-02T18:38:37.890Z,22.50
2023-01-02T18:41:25.070Z,23.35
2023-01-02T18:44:00.571Z,21.63
2023-01-02T18:47:04.230Z,20.83
2023-01-02T18:49:27.658Z,24.83
2023-01-02T18:52:21.123Z,24.08
2023-01-02T18:54:56.973Z,23.45
2023-01-02T18:57:35.034Z,23.05
2023-01-02T19:00:19.795Z,23.25
2023-01-02T19:02:55.535Z,23.17
2023-01-02T19:05:29.248Z,21.55
2023-01-02T19:08:06.565Z,18.42
2023-01-02T19:10:48.192Z,19.95
2023-01-02T19:13:23.516Z,20.65
2023-01-02T19:16:02.344Z,21.05
2023-01-02T19:18:54.412Z,21.55
2023-01-02T19:21:29.213Z,19.00
2023-01-02T19:24:04.482Z,19.50
2023-01-02T19:26:42.041Z,20.67
2023-01-02T19:29:09.556Z,19.88
2023-01-02T19:32:01.169Z,21.67
2023-01-02T19:34:40.805Z,21.70
2023-01-02T19:37:10.784Z,23.38
2023-01-02T19:39:54.379Z,24.05
2023-01-02T19:42:23.321Z,23.92
2023-01-02T19:44:52.991Z,23.48
2023-01-02T19:47:24.837Z,23.67
2023-01-02T19:49:52.659Z,26.60
2023-01-02T19:52:20.823Z,24.80
2023-01-02T19:54:48.825Z,23.67
2023-01-02T19:57:16.627Z,23.30
2023-01-02T19:59:47.388Z,21.90
2023-01-02T20:02:16.773Z,22.55
2023-01-02T20:04:44.662Z,21.35
2023-01-02T20:07:14.377Z,24.58
2023-01-02T20:09:42.365Z,20.88
2023-01-02T20:12:09.739Z,23.65
2023-01-02T20:14:40.090Z,21.25
2023-01-02T20:17:08.342Z,23.55
2023-01-02T20:19:36.519Z,23.27
2023-01-02T20:22:04.204Z,22.70
2023-01-02T20:24:31.691Z,23.15
2023-01-02T20:27:00.127Z,20.85
2023-01-02T20:29:28.268Z,21.40
2023-01-02T20:31:56.341Z,23.90
2023-01-02T20:34:26.378Z,22.42
2023-01-02T20:36:53.665Z,21.17
2023-01-02T20:39:21.805Z,21.45
2023-01-02T20:41:49.107Z,20.45
2023-01-02T20:44:17.681Z,22.88
2023-01-02T20:46:44.854Z,21.35
2023-01-02T20:49:12.497Z,22.05
2023-01-02T20:51:39.736Z,21.20
2023-01-02T20:54:08.174Z,22.42
2023-01-02T20:56:35.881Z,21.90
2023-01-02T20:59:04.094Z,23.30
2023-01-02T21:01:32.628Z,23.90
2023-01-02T21:04:00.411Z,22.67
2023-01-02T21:06:27.694Z,21.40
2023-01-02T21:08:55.031Z,23.63
2023-01-02T21:11:24.797Z,23.52
2023-01-02T21:13:55.033Z,23.20
2023-01-02T21:16:22.247Z,21.00
2023-01-02T21:18:52.308Z,20.90
2023-01-02T21:21:22.058Z,20.70
2023-01-02T21:23:50.805Z,21.83
2023-01-02T21:26:19.351Z,21.40
2023-01-02T21:28:49.872Z,22.20
2023-01-02T21:31:18.800Z,19.77
2023-01-02T21:33:47.187Z,21.98
2023-01-02T21:36:14.424Z,22.92
2023-01-02T21:38:44.731Z,19.00
2023-01-02T21:41:12.106Z,25.20
2023-01-02T21:43:41.928Z,23.13
2023-01-02T21:46:11.815Z,22.38
2023-01-02T21:48:41.613Z,22.45
2023-01-02T21:51:08.750Z,22.85
2023-01-02T21:53:40.797Z,21.77
2023-01-02T21:56:10.171Z,22.20
2023-01-02T21:58:42.084Z,20.75
2023-01-02T22:01:09.239Z,19.45
2023-01-02T22:03:39.422Z,20.50
2023-01-02T22:06:06.968Z,22.05
2023-01-02T22:08:34.467Z,22.45
2023-01-02T22:11:04.107Z,24.95
2023-01-02T22:13:33.822Z,20.92
2023-01-02T22:16:01.074Z,21.35
2023-01-02T22:18:29.597Z,19.13
2023-01-02T22:20:56.965Z,22.65
2023-01-02T22:23:24.331Z,25.20
2023-01-02T22:25:51.573Z,21.30
2023-01-02T22:28:19.088Z,21.88
2023-01-02T22:30:46.123Z,24.63
2023-01-02T22:33:15.937Z,21.15
2023-01-02T22:35:43.399Z,22.67
2023-01-02T22:38:10.950Z,21.45
2023-01-02T22:40:40.620Z,19.70
2023-01-02T22:43:12.536Z,21.48
2023-01-02T22:45:53.225Z,28.90
2023-01-02T22:48:22.602Z,22.45
2023-01-02T22:50:52.339Z,19.73
2023-01-02T22:53:41.248Z,20.35
2023-01-02T22:56:15.461Z,19.75
2023-01-02T22:58:45.705Z,21.85
2023-01-02T23:01:12.823Z,26.27
2023-01-02T23:03:42.196Z,20.73
2023-01-02T23:06:09.800Z,20.98
2023-01-02T23:08:38.175Z,19.70
2023-01-02T23:11:06.227Z,19.25
2023-01-02T23:13:34.933Z,22.52
2023-01-02T23:16:03.579Z,19.67
2023-01-02T23:18:31.015Z,18.90
2023-01-02T23:20:58.248Z,20.02
2023-01-02T23:23:27.845Z,28.02
2023-01-02T23:25:54.923Z,22.33
2023-01-02T23:28:56.827Z,20.73
2023-01-02T23:31:14.133Z,19.33
2023-01-02T23:33:41.679Z,20.60
2023-01-02T23:36:08.773Z,19.65
2023-01-02T23:38:38.609Z,22.20
2023-01-02T23:41:05.957Z,21.05
2023-01-02T23:43:35.799Z,22.45
2023-01-02T23:46:03.203Z,21.42
2023-01-02T23:48:30.710Z,18.80
2023-01-02T23:51:02.295Z,18.48
2023-01-02T23:53:31.480Z,19.85
2023-01-02T23:55:58.697Z,20.00
2023-01-02T23:58:26.110Z,19.08
